sensor_id;sensor_type;location;lat;lon;timestamp;P1;durP1;ratioP1;P2;durP2;ratioP2
71665;SDS011;59503;53.486;10.196;2022-09-27T00:02:11;7.30;;;3.95;;
71665;SDS011;59503;53.486;10.196;2022-09-27T00:04:37;8.47;;;3.83;;
71665;SDS011;59503;53.486;10.196;2022-09-27T00:07:02;8.87;;;3.57;;
71665;SDS011;59503;53.486;10.196;2022-09-27T00:09:28;8.10;;;3.43;;
71665;SDS011;59503;53.486;10.196;2022-09-27T00:11:54;6.78;;;3.50;;
71665;SDS011;59503;53.486;10.196;2022-09-27T00:14:19;7.47;;;3.33;;
71665;SDS011;59503;53.486;10.196;2022-09-27T00:16:45;8.57;;;4.03;;
71665;SDS011;59503;53.486;10.196;2022-09-27T00:19:18;6.03;;;3.50;;
71665;SDS011;59503;53.486;10.196;2022-09-27T00:21:46;9.77;;;4.28;;
71665;SDS011;59503;53.486;10.196;2022-09-27T00:24:14;8.40;;;3.90;;
71665;SDS011;59503;53.486;10.196;2022-09-27T00:26:42;8.45;;;4.00;;
71665;SDS011;59503;53.486;10.196;2022-09-27T00:29:08;10.80;;;4.23;;
71665;SDS011;59503;53.486;10.196;2022-09-27T00:31:35;6.40;;;4.05;;
71665;SDS011;59503;53.486;10.196;2022-09-27T00:34:02;7.35;;;4.07;;
71665;SDS011;59503;53.486;10.196;2022-09-27T00:36:29;7.00;;;3.80;;
71665;SDS011;59503;53.486;10.196;2022-09-27T00:38:56;7.40;;;4.20;;
71665;SDS011;59503;53.486;10.196;2022-09-27T00:41:28;7.40;;;3.75;;
71665;SDS011;59503;53.486;10.196;2022-09-27T00:44:01;9.75;;;3.97;;
71665;SDS011;59503;53.486;10.196;2022-09-27T00:46:29;8.13;;;4.60;;
71665;SDS011;59503;53.486;10.196;2022-09-27T00:49:20;5.75;;;3.67;;
71665;SDS011;59503;53.486;10.196;2022-09-27T00:51:52;7.30;;;3.70;;
71665;SDS011;59503;53.486;10.196;2022-09-27T00:54:21;8.45;;;4.32;;
71665;SDS011;59503;53.486;10.196;2022-09-27T00:56:50;7.95;;;3.83;;
71665;SDS011;59503;53.486;10.196;2022-09-27T00:59:21;6.78;;;4.30;;
71665;SDS011;59503;53.486;10.196;2022-09-27T01:01:53;8.25;;;4.07;;
71665;SDS011;59503;53.486;10.196;2022-09-27T01:04:20;9.20;;;4.20;;
71665;SDS011;59503;53.486;10.196;2022-09-27T01:06:50;10.32;;;4.75;;
71665;SDS011;59503;53.486;10.196;2022-09-27T01:09:16;7.82;;;4.38;;
71665;SDS011;59503;53.486;10.196;2022-09-27T01:11:50;9.43;;;4.40;;
71665;SDS011;59503;53.486;10.196;2022-09-27T01:23:31;9.90;;;4.80;;
71665;SDS011;59503;53.486;10.196;2022-09-27T01:32:03;15.73;;;6.00;;
71665;SDS011;59503;53.486;10.196;2022-09-27T01:40:10;8.55;;;4.72;;
71665;SDS011;59503;53.486;10.196;2022-09-27T01:42:48;9.05;;;4.82;;
71665;SDS011;59503;53.486;10.196;2022-09-27T01:48:03;9.38;;;4.60;;
71665;SDS011;59503;53.486;10.196;2022-09-27T01:53:38;7.53;;;4.78;;
71665;SDS011;59503;53.486;10.196;2022-09-27T01:56:12;12.13;;;4.53;;
71665;SDS011;59503;53.486;10.196;2022-09-27T01:58:45;7.78;;;3.90;;
71665;SDS011;59503;53.486;10.196;2022-09-27T02:01:33;7.28;;;4.35;;
71665;SDS011;59503;53.486;10.196;2022-09-27T02:04:00;8.90;;;3.97;;
71665;SDS011;59503;53.486;10.196;2022-09-27T02:06:47;7.03;;;4.20;;
71665;SDS011;59503;53.486;10.196;2022-09-27T02:12:05;7.07;;;3.92;;
71665;SDS011;59503;53.486;10.196;2022-09-27T02:14:50;6.28;;;4.20;;
71665;SDS011;59503;53.486;10.196;2022-09-27T02:17:24;8.13;;;3.73;;
71665;SDS011;59503;53.486;10.196;2022-09-27T02:22:48;8.13;;;4.47;;
71665;SDS011;59503;53.486;10.196;2022-09-27T02:30:37;9.37;;;4.70;;
71665;SDS011;59503;53.486;10.196;2022-09-27T02:33:03;12.45;;;5.43;;
71665;SDS011;59503;53.486;10.196;2022-09-27T02:35:30;9.83;;;4.83;;
71665;SDS011;59503;53.486;10.196;2022-09-27T02:37:58;9.27;;;5.80;;
71665;SDS011;59503;53.486;10.196;2022-09-27T02:40:24;8.40;;;4.90;;
71665;SDS011;59503;53.486;10.196;2022-09-27T02:42:54;10.18;;;5.20;;
71665;SDS011;59503;53.486;10.196;2022-09-27T02:45:20;8.13;;;5.43;;
71665;SDS011;59503;53.486;10.196;2022-09-27T02:50:30;9.80;;;5.95;;
71665;SDS011;59503;53.486;10.196;2022-09-27T03:01:31;8.93;;;5.85;;
71665;SDS011;59503;53.486;10.196;2022-09-27T03:04:09;8.52;;;5.40;;
71665;SDS011;59503;53.486;10.196;2022-09-27T03:06:41;7.28;;;4.32;;
71665;SDS011;59503;53.486;10.196;2022-09-27T03:09:29;6.60;;;5.00;;
71665;SDS011;59503;53.486;10.196;2022-09-27T03:12:12;10.33;;;5.60;;
71665;SDS011;59503;53.486;10.196;2022-09-27T03:14:38;10.20;;;5.85;;
71665;SDS011;59503;53.486;10.196;2022-09-27T03:17:04;12.48;;;6.30;;
71665;SDS011;59503;53.486;10.196;2022-09-27T03:19:30;11.57;;;5.20;;
71665;SDS011;59503;53.486;10.196;2022-09-27T03:21:56;9.57;;;5.35;;
71665;SDS011;59503;53.486;10.196;2022-09-27T03:24:21;11.23;;;5.60;;
71665;SDS011;59503;53.486;10.196;2022-09-27T03:26:47;10.30;;;4.97;;
71665;SDS011;59503;53.486;10.196;2022-09-27T03:29:12;9.80;;;4.95;;
71665;SDS011;59503;53.486;10.196;2022-09-27T03:31:38;8.47;;;4.47;;
71665;SDS011;59503;53.486;10.196;2022-09-27T03:34:04;9.50;;;5.57;;
71665;SDS011;59503;53.486;10.196;2022-09-27T03:36:29;9.13;;;4.40;;
71665;SDS011;59503;53.486;10.196;2022-09-27T03:38:55;9.03;;;4.70;;
71665;SDS011;59503;53.486;10.196;2022-09-27T03:41:20;8.27;;;5.13;;
71665;SDS011;59503;53.486;10.196;2022-09-27T03:43:45;7.93;;;4.50;;
71665;SDS011;59503;53.486;10.196;2022-09-27T03:46:11;8.47;;;5.33;;
71665;SDS011;59503;53.486;10.196;2022-09-27T03:48:36;18.60;;;7.67;;
71665;SDS011;59503;53.486;10.196;2022-09-27T03:51:02;12.40;;;6.07;;
71665;SDS011;59503;53.486;10.196;2022-09-27T03:53:28;11.15;;;5.80;;
71665;SDS011;59503;53.486;10.196;2022-09-27T03:55:54;7.97;;;5.13;;
71665;SDS011;59503;53.486;10.196;2022-09-27T03:58:19;9.15;;;4.97;;
71665;SDS011;59503;53.486;10.196;2022-09-27T04:00:45;7.93;;;5.13;;
71665;SDS011;59503;53.486;10.196;2022-09-27T04:03:11;8.40;;;4.87;;
71665;SDS011;59503;53.486;10.196;2022-09-27T04:05:36;9.65;;;5.22;;
71665;SDS011;59503;53.486;10.196;2022-09-27T04:08:02;9.33;;;5.50;;
71665;SDS011;59503;53.486;10.196;2022-09-27T04:10:29;10.48;;;5.20;;
71665;SDS011;59503;53.486;10.196;2022-09-27T04:12:55;9.47;;;5.90;;
71665;SDS011;59503;53.486;10.196;2022-09-27T04:15:20;9.77;;;5.77;;
71665;SDS011;59503;53.486;10.196;2022-09-27T04:17:46;12.18;;;6.50;;
71665;SDS011;59503;53.486;10.196;2022-09-27T04:20:11;8.40;;;5.80;;
71665;SDS011;59503;53.486;10.196;2022-09-27T04:22:40;8.20;;;5.70;;
71665;SDS011;59503;53.486;10.196;2022-09-27T04:25:08;10.02;;;5.68;;
71665;SDS011;59503;53.486;10.196;2022-09-27T04:27:34;8.02;;;5.15;;
71665;SDS011;59503;53.486;10.196;2022-09-27T04:29:59;9.70;;;5.40;;
71665;SDS011;59503;53.486;10.196;2022-09-27T04:32:25;10.07;;;5.25;;
71665;SDS011;59503;53.486;10.196;2022-09-27T04:34:50;7.70;;;5.27;;
71665;SDS011;59503;53.486;10.196;2022-09-27T04:37:34;7.60;;;4.75;;
71665;SDS011;59503;53.486;10.196;2022-09-27T04:40:01;7.35;;;5.15;;
71665;SDS011;59503;53.486;10.196;2022-09-27T04:42:27;10.43;;;4.63;;
71665;SDS011;59503;53.486;10.196;2022-09-27T04:44:54;8.18;;;5.30;;
71665;SDS011;59503;53.486;10.196;2022-09-27T04:47:19;6.75;;;4.43;;
71665;SDS011;59503;53.486;10.196;2022-09-27T04:49:45;5.13;;;3.63;;
71665;SDS011;59503;53.486;10.196;2022-09-27T04:52:11;9.90;;;4.90;;
71665;SDS011;59503;53.486;10.196;2022-09-27T04:54:39;7.78;;;4.80;;
71665;SDS011;59503;53.486;10.196;2022-09-27T04:57:05;6.97;;;4.67;;
71665;SDS011;59503;53.486;10.196;2022-09-27T04:59:30;7.15;;;4.78;;
71665;SDS011;59503;53.486;10.196;2022-09-27T05:01:56;7.00;;;4.33;;
71665;SDS011;59503;53.486;10.196;2022-09-27T05:04:24;8.90;;;5.50;;
71665;SDS011;59503;53.486;10.196;2022-09-27T05:06:49;9.60;;;5.80;;
71665;SDS011;59503;53.486;10.196;2022-09-27T05:09:15;10.90;;;5.40;;
71665;SDS011;59503;53.486;10.196;2022-09-27T05:11:40;7.60;;;5.28;;
71665;SDS011;59503;53.486;10.196;2022-09-27T05:14:06;7.70;;;5.60;;
71665;SDS011;59503;53.486;10.196;2022-09-27T05:16:32;8.00;;;5.07;;
71665;SDS011;59503;53.486;10.196;2022-09-27T05:18:58;8.95;;;5.30;;
71665;SDS011;59503;53.486;10.196;2022-09-27T05:21:23;12.77;;;5.53;;
71665;SDS011;59503;53.486;10.196;2022-09-27T05:23:49;9.10;;;5.60;;
71665;SDS011;59503;53.486;10.196;2022-09-27T05:26:14;8.17;;;5.47;;
71665;SDS011;59503;53.486;10.196;2022-09-27T05:28:40;8.27;;;5.13;;
71665;SDS011;59503;53.486;10.196;2022-09-27T05:31:08;8.38;;;4.97;;
71665;SDS011;59503;53.486;10.196;2022-09-27T05:33:35;8.75;;;4.93;;
71665;SDS011;59503;53.486;10.196;2022-09-27T05:36:00;9.63;;;5.40;;
71665;SDS011;59503;53.486;10.196;2022-09-27T05:38:26;9.68;;;5.65;;
71665;SDS011;59503;53.486;10.196;2022-09-27T05:40:52;8.93;;;5.10;;
71665;SDS011;59503;53.486;10.196;2022-09-27T05:43:17;9.98;;;5.88;;
71665;SDS011;59503;53.486;10.196;2022-09-27T05:45:44;8.53;;;5.63;;
71665;SDS011;59503;53.486;10.196;2022-09-27T05:48:09;7.88;;;5.03;;
71665;SDS011;59503;53.486;10.196;2022-09-27T05:50:36;7.77;;;4.90;;
71665;SDS011;59503;53.486;10.196;2022-09-27T05:53:02;8.88;;;5.13;;
71665;SDS011;59503;53.486;10.196;2022-09-27T05:55:28;11.45;;;5.72;;
71665;SDS011;59503;53.486;10.196;2022-09-27T06:00:20;10.10;;;5.63;;
71665;SDS011;59503;53.486;10.196;2022-09-27T06:02:52;11.00;;;5.65;;
71665;SDS011;59503;53.486;10.196;2022-09-27T06:05:23;13.93;;;6.03;;
71665;SDS011;59503;53.486;10.196;2022-09-27T06:07:50;12.55;;;5.47;;
71665;SDS011;59503;53.486;10.196;2022-09-27T06:10:17;11.50;;;5.90;;
71665;SDS011;59503;53.486;10.196;2022-09-27T06:12:44;18.60;;;6.30;;
71665;SDS011;59503;53.486;10.196;2022-09-27T06:15:09;12.32;;;5.47;;
71665;SDS011;59503;53.486;10.196;2022-09-27T06:17:35;11.50;;;5.83;;
71665;SDS011;59503;53.486;10.196;2022-09-27T06:20:01;12.32;;;6.00;;
71665;SDS011;59503;53.486;10.196;2022-09-27T06:22:27;11.40;;;5.70;;
71665;SDS011;59503;53.486;10.196;2022-09-27T06:24:53;14.48;;;6.53;;
71665;SDS011;59503;53.486;10.196;2022-09-27T06:27:18;15.13;;;6.43;;
71665;SDS011;59503;53.486;10.196;2022-09-27T06:29:44;11.20;;;5.27;;
71665;SDS011;59503;53.486;10.196;2022-09-27T06:32:10;12.05;;;6.20;;
71665;SDS011;59503;53.486;10.196;2022-09-27T06:34:35;13.30;;;6.07;;
71665;SDS011;59503;53.486;10.196;2022-09-27T06:37:01;13.90;;;6.85;;
71665;SDS011;59503;53.486;10.196;2022-09-27T06:39:27;16.23;;;6.20;;
71665;SDS011;59503;53.486;10.196;2022-09-27T06:41:55;19.20;;;7.90;;
71665;SDS011;59503;53.486;10.196;2022-09-27T06:44:22;16.98;;;7.20;;
71665;SDS011;59503;53.486;10.196;2022-09-27T06:46:49;17.77;;;7.27;;
71665;SDS011;59503;53.486;10.196;2022-09-27T06:49:15;16.42;;;6.68;;
71665;SDS011;59503;53.486;10.196;2022-09-27T06:51:40;20.00;;;7.32;;
71665;SDS011;59503;53.486;10.196;2022-09-27T06:54:06;20.47;;;7.90;;
71665;SDS011;59503;53.486;10.196;2022-09-27T06:56:32;16.73;;;7.05;;
71665;SDS011;59503;53.486;10.196;2022-09-27T06:58:57;17.90;;;6.80;;
71665;SDS011;59503;53.486;10.196;2022-09-27T07:01:42;14.50;;;6.47;;
71665;SDS011;59503;53.486;10.196;2022-09-27T07:04:09;12.13;;;5.40;;
71665;SDS011;59503;53.486;10.196;2022-09-27T07:06:35;13.90;;;5.93;;
71665;SDS011;59503;53.486;10.196;2022-09-27T07:09:01;13.77;;;5.85;;
71665;SDS011;59503;53.486;10.196;2022-09-27T07:11:27;9.73;;;4.63;;
71665;SDS011;59503;53.486;10.196;2022-09-27T07:13:53;17.83;;;4.73;;
71665;SDS011;59503;53.486;10.196;2022-09-27T07:16:20;8.75;;;4.20;;
71665;SDS011;59503;53.486;10.196;2022-09-27T07:18:46;5.45;;;3.08;;
71665;SDS011;59503;53.486;10.196;2022-09-27T07:21:13;7.25;;;3.38;;
71665;SDS011;59503;53.486;10.196;2022-09-27T07:23:40;4.53;;;2.87;;
71665;SDS011;59503;53.486;10.196;2022-09-27T07:26:06;5.70;;;2.88;;
71665;SDS011;59503;53.486;10.196;2022-09-27T07:28:34;7.55;;;2.33;;
71665;SDS011;59503;53.486;10.196;2022-09-27T07:31:01;5.90;;;2.97;;
71665;SDS011;59503;53.486;10.196;2022-09-27T07:33:27;6.50;;;1.97;;
71665;SDS011;59503;53.486;10.196;2022-09-27T07:35:53;4.07;;;1.48;;
71665;SDS011;59503;53.486;10.196;2022-09-27T07:38:18;3.80;;;1.23;;
71665;SDS011;59503;53.486;10.196;2022-09-27T07:40:44;3.20;;;1.57;;
71665;SDS011;59503;53.486;10.196;2022-09-27T07:43:10;2.93;;;1.40;;
71665;SDS011;59503;53.486;10.196;2022-09-27T07:45:36;5.35;;;1.02;;
71665;SDS011;59503;53.486;10.196;2022-09-27T07:48:10;4.38;;;0.98;;
71665;SDS011;59503;53.486;10.196;2022-09-27T07:50:37;3.13;;;0.93;;
71665;SDS011;59503;53.486;10.196;2022-09-27T07:53:03;2.33;;;0.70;;
71665;SDS011;59503;53.486;10.196;2022-09-27T07:55:29;2.08;;;0.80;;
71665;SDS011;59503;53.486;10.196;2022-09-27T07:58:05;3.67;;;0.90;;
71665;SDS011;59503;53.486;10.196;2022-09-27T08:00:33;1.40;;;0.70;;
71665;SDS011;59503;53.486;10.196;2022-09-27T08:03:03;1.05;;;0.70;;
71665;SDS011;59503;53.486;10.196;2022-09-27T08:05:29;1.25;;;0.70;;
71665;SDS011;59503;53.486;10.196;2022-09-27T08:07:55;1.63;;;0.83;;
71665;SDS011;59503;53.486;10.196;2022-09-27T08:10:21;1.50;;;0.45;;
71665;SDS011;59503;53.486;10.196;2022-09-27T08:12:54;1.88;;;0.80;;
71665;SDS011;59503;53.486;10.196;2022-09-27T08:15:20;6.37;;;0.80;;
71665;SDS011;59503;53.486;10.196;2022-09-27T08:17:45;2.77;;;0.80;;
71665;SDS011;59503;53.486;10.196;2022-09-27T08:20:11;1.70;;;0.77;;
71665;SDS011;59503;53.486;10.196;2022-09-27T08:22:42;2.17;;;0.80;;
71665;SDS011;59503;53.486;10.196;2022-09-27T08:25:07;3.30;;;0.60;;
71665;SDS011;59503;53.486;10.196;2022-09-27T08:27:33;2.55;;;0.80;;
71665;SDS011;59503;53.486;10.196;2022-09-27T08:29:58;2.10;;;0.60;;
71665;SDS011;59503;53.486;10.196;2022-09-27T08:32:24;4.05;;;0.60;;
71665;SDS011;59503;53.486;10.196;2022-09-27T08:34:51;1.43;;;0.60;;
71665;SDS011;59503;53.486;10.196;2022-09-27T08:37:18;2.55;;;0.65;;
71665;SDS011;59503;53.486;10.196;2022-09-27T08:39:43;2.28;;;0.90;;
71665;SDS011;59503;53.486;10.196;2022-09-27T08:47:28;4.70;;;1.23;;
71665;SDS011;59503;53.486;10.196;2022-09-27T08:52:31;1.83;;;0.70;;
71665;SDS011;59503;53.486;10.196;2022-09-27T08:57:57;2.55;;;0.80;;
71665;SDS011;59503;53.486;10.196;2022-09-27T09:00:23;3.90;;;0.85;;
71665;SDS011;59503;53.486;10.196;2022-09-27T09:02:49;2.40;;;0.82;;
71665;SDS011;59503;53.486;10.196;2022-09-27T09:05:28;2.33;;;0.73;;
71665;SDS011;59503;53.486;10.196;2022-09-27T09:10:47;2.38;;;0.70;;
71665;SDS011;59503;53.486;10.196;2022-09-27T09:16:19;1.63;;;0.77;;
71665;SDS011;59503;53.486;10.196;2022-09-27T09:21:42;5.10;;;0.80;;
71665;SDS011;59503;53.486;10.196;2022-09-27T09:27:28;1.77;;;0.60;;
71665;SDS011;59503;53.486;10.196;2022-09-27T09:30:21;2.10;;;0.80;;
71665;SDS011;59503;53.486;10.196;2022-09-27T09:33:01;2.20;;;0.82;;
71665;SDS011;59503;53.486;10.196;2022-09-27T09:38:47;3.28;;;0.63;;
71665;SDS011;59503;53.486;10.196;2022-09-27T09:44:01;1.87;;;0.60;;
71665;SDS011;59503;53.486;10.196;2022-09-27T09:46:40;4.25;;;1.20;;
71665;SDS011;59503;53.486;10.196;2022-09-27T09:49:20;2.72;;;0.75;;
71665;SDS011;59503;53.486;10.196;2022-09-27T09:52:06;3.15;;;0.90;;
71665;SDS011;59503;53.486;10.196;2022-09-27T09:54:39;2.15;;;0.50;;
71665;SDS011;59503;53.486;10.196;2022-09-27T09:59:35;1.33;;;0.70;;
71665;SDS011;59503;53.486;10.196;2022-09-27T10:04:45;2.40;;;0.85;;
71665;SDS011;59503;53.486;10.196;2022-09-27T10:07:10;3.57;;;0.83;;
71665;SDS011;59503;53.486;10.196;2022-09-27T10:09:36;3.00;;;0.60;;
71665;SDS011;59503;53.486;10.196;2022-09-27T10:12:03;3.07;;;0.70;;
71665;SDS011;59503;53.486;10.196;2022-09-27T10:14:28;2.00;;;0.93;;
71665;SDS011;59503;53.486;10.196;2022-09-27T10:16:58;1.30;;;0.67;;
71665;SDS011;59503;53.486;10.196;2022-09-27T10:19:28;2.15;;;0.70;;
71665;SDS011;59503;53.486;10.196;2022-09-27T10:22:00;2.28;;;0.70;;
71665;SDS011;59503;53.486;10.196;2022-09-27T10:24:27;1.40;;;0.80;;
71665;SDS011;59503;53.486;10.196;2022-09-27T10:26:56;1.77;;;0.60;;
71665;SDS011;59503;53.486;10.196;2022-09-27T10:29:27;1.10;;;0.60;;
71665;SDS011;59503;53.486;10.196;2022-09-27T10:31:58;2.22;;;1.00;;
71665;SDS011;59503;53.486;10.196;2022-09-27T10:34:27;1.52;;;0.77;;
71665;SDS011;59503;53.486;10.196;2022-09-27T10:37:04;2.50;;;1.10;;
71665;SDS011;59503;53.486;10.196;2022-09-27T10:39:37;2.40;;;0.60;;
71665;SDS011;59503;53.486;10.196;2022-09-27T10:45:19;1.63;;;0.60;;
71665;SDS011;59503;53.486;10.196;2022-09-27T10:47:52;1.73;;;0.90;;
71665;SDS011;59503;53.486;10.196;2022-09-27T10:50:25;1.77;;;0.80;;
71665;SDS011;59503;53.486;10.196;2022-09-27T10:52:59;1.63;;;0.70;;
71665;SDS011;59503;53.486;10.196;2022-09-27T10:55:27;1.05;;;0.52;;
71665;SDS011;59503;53.486;10.196;2022-09-27T10:57:56;2.13;;;0.80;;
71665;SDS011;59503;53.486;10.196;2022-09-27T11:00:25;0.90;;;0.50;;
71665;SDS011;59503;53.486;10.196;2022-09-27T11:02:56;0.80;;;0.50;;
71665;SDS011;59503;53.486;10.196;2022-09-27T11:05:34;2.60;;;0.57;;
71665;SDS011;59503;53.486;10.196;2022-09-27T11:08:27;1.33;;;0.60;;
71665;SDS011;59503;53.486;10.196;2022-09-27T11:14:03;4.30;;;0.50;;
71665;SDS011;59503;53.486;10.196;2022-09-27T11:27:44;1.58;;;0.73;;
71665;SDS011;59503;53.486;10.196;2022-09-27T11:35:32;1.50;;;0.70;;
71665;SDS011;59503;53.486;10.196;2022-09-27T11:38:27;0.80;;;0.50;;
71665;SDS011;59503;53.486;10.196;2022-09-27T11:43:56;0.90;;;0.60;;
71665;SDS011;59503;53.486;10.196;2022-09-27T11:55:42;1.85;;;0.52;;
71665;SDS011;59503;53.486;10.196;2022-09-27T11:58:20;0.98;;;0.50;;
71665;SDS011;59503;53.486;10.196;2022-09-27T12:06:47;0.80;;;0.40;;
71665;SDS011;59503;53.486;10.196;2022-09-27T12:09:37;0.60;;;0.30;;
71665;SDS011;59503;53.486;10.196;2022-09-27T12:12:20;1.65;;;0.40;;
71665;SDS011;59503;53.486;10.196;2022-09-27T12:14:52;0.95;;;0.20;;
71665;SDS011;59503;53.486;10.196;2022-09-27T12:17:26;1.17;;;0.50;;
71665;SDS011;59503;53.486;10.196;2022-09-27T12:19:56;0.80;;;0.37;;
71665;SDS011;59503;53.486;10.196;2022-09-27T12:22:26;0.45;;;0.38;;
71665;SDS011;59503;53.486;10.196;2022-09-27T12:25:05;0.93;;;0.40;;
71665;SDS011;59503;53.486;10.196;2022-09-27T12:27:37;3.25;;;0.50;;
71665;SDS011;59503;53.486;10.196;2022-09-27T12:30:10;1.02;;;0.30;;
71665;SDS011;59503;53.486;10.196;2022-09-27T12:32:49;0.53;;;0.40;;
71665;SDS011;59503;53.486;10.196;2022-09-27T12:35:39;0.70;;;0.40;;
71665;SDS011;59503;53.486;10.196;2022-09-27T12:38:11;0.77;;;0.50;;
71665;SDS011;59503;53.486;10.196;2022-09-27T12:40:41;2.55;;;0.70;;
71665;SDS011;59503;53.486;10.196;2022-09-27T12:48:34;0.95;;;0.40;;
71665;SDS011;59503;53.486;10.196;2022-09-27T12:51:22;1.35;;;0.50;;
71665;SDS011;59503;53.486;10.196;2022-09-27T12:56:32;0.50;;;0.30;;
71665;SDS011;59503;53.486;10.196;2022-09-27T13:07:18;1.45;;;0.50;;
71665;SDS011;59503;53.486;10.196;2022-09-27T13:10:00;1.17;;;0.45;;
71665;SDS011;59503;53.486;10.196;2022-09-27T13:12:40;2.93;;;0.60;;
71665;SDS011;59503;53.486;10.196;2022-09-27T13:15:13;1.45;;;0.40;;
71665;SDS011;59503;53.486;10.196;2022-09-27T13:23:00;3.33;;;0.30;;
71665;SDS011;59503;53.486;10.196;2022-09-27T13:30:55;0.35;;;0.30;;
71665;SDS011;59503;53.486;10.196;2022-09-27T13:36:05;1.60;;;0.30;;
71665;SDS011;59503;53.486;10.196;2022-09-27T13:38:33;1.23;;;0.40;;
71665;SDS011;59503;53.486;10.196;2022-09-27T13:46:34;2.60;;;0.30;;
71665;SDS011;59503;53.486;10.196;2022-09-27T13:49:20;0.50;;;0.30;;
71665;SDS011;59503;53.486;10.196;2022-09-27T13:52:18;0.43;;;0.28;;
71665;SDS011;59503;53.486;10.196;2022-09-27T13:54:57;0.88;;;0.40;;
71665;SDS011;59503;53.486;10.196;2022-09-27T14:00:21;0.93;;;0.30;;
71665;SDS011;59503;53.486;10.196;2022-09-27T14:03:01;0.43;;;0.20;;
71665;SDS011;59503;53.486;10.196;2022-09-27T14:06:08;1.95;;;0.40;;
71665;SDS011;59503;53.486;10.196;2022-09-27T14:11:17;3.05;;;0.40;;
71665;SDS011;59503;53.486;10.196;2022-09-27T14:13:47;1.10;;;0.40;;
71665;SDS011;59503;53.486;10.196;2022-09-27T14:16:15;1.15;;;0.43;;
71665;SDS011;59503;53.486;10.196;2022-09-27T14:21:27;1.60;;;0.40;;
71665;SDS011;59503;53.486;10.196;2022-09-27T14:24:31;0.30;;;0.30;;
71665;SDS011;59503;53.486;10.196;2022-09-27T14:29:45;1.98;;;0.52;;
71665;SDS011;59503;53.486;10.196;2022-09-27T14:32:21;1.98;;;0.40;;
71665;SDS011;59503;53.486;10.196;2022-09-27T14:35:05;2.30;;;0.50;;
71665;SDS011;59503;53.486;10.196;2022-09-27T14:37:51;3.13;;;0.77;;
71665;SDS011;59503;53.486;10.196;2022-09-27T14:40:19;3.17;;;1.07;;
71665;SDS011;59503;53.486;10.196;2022-09-27T14:42:45;2.17;;;1.02;;
71665;SDS011;59503;53.486;10.196;2022-09-27T14:45:20;3.25;;;1.00;;
71665;SDS011;59503;53.486;10.196;2022-09-27T14:47:50;3.22;;;1.17;;
71665;SDS011;59503;53.486;10.196;2022-09-27T14:50:21;2.30;;;0.97;;
71665;SDS011;59503;53.486;10.196;2022-09-27T14:52:49;4.20;;;1.35;;
71665;SDS011;59503;53.486;10.196;2022-09-27T14:55:20;2.20;;;1.38;;
71665;SDS011;59503;53.486;10.196;2022-09-27T14:57:50;4.17;;;1.30;;
71665;SDS011;59503;53.486;10.196;2022-09-27T15:00:24;5.55;;;1.58;;
71665;SDS011;59503;53.486;10.196;2022-09-27T15:02:53;7.40;;;2.72;;
71665;SDS011;59503;53.486;10.196;2022-09-27T15:05:21;2.13;;;1.70;;
71665;SDS011;59503;53.486;10.196;2022-09-27T15:07:48;3.70;;;1.48;;
71665;SDS011;59503;53.486;10.196;2022-09-27T15:10:16;3.20;;;1.40;;
71665;SDS011;59503;53.486;10.196;2022-09-27T15:12:44;3.15;;;1.50;;
71665;SDS011;59503;53.486;10.196;2022-09-27T15:15:24;3.65;;;1.45;;
71665;SDS011;59503;53.486;10.196;2022-09-27T15:17:55;6.43;;;1.55;;
71665;SDS011;59503;53.486;10.196;2022-09-27T15:20:25;3.72;;;1.80;;
71665;SDS011;59503;53.486;10.196;2022-09-27T15:22:55;2.73;;;1.40;;
71665;SDS011;59503;53.486;10.196;2022-09-27T15:25:55;3.42;;;1.50;;
71665;SDS011;59503;53.486;10.196;2022-09-27T15:28:22;7.10;;;1.10;;
71665;SDS011;59503;53.486;10.196;2022-09-27T15:30:53;3.90;;;1.40;;
71665;SDS011;59503;53.486;10.196;2022-09-27T15:33:21;2.22;;;1.30;;
71665;SDS011;59503;53.486;10.196;2022-09-27T15:35:56;4.73;;;1.23;;
71665;SDS011;59503;53.486;10.196;2022-09-27T15:38:30;4.15;;;1.35;;
71665;SDS011;59503;53.486;10.196;2022-09-27T15:41:02;3.78;;;1.20;;
71665;SDS011;59503;53.486;10.196;2022-09-27T15:43:36;3.42;;;1.50;;
71665;SDS011;59503;53.486;10.196;2022-09-27T15:51:47;5.57;;;1.42;;
71665;SDS011;59503;53.486;10.196;2022-09-27T15:54:21;2.58;;;1.20;;
71665;SDS011;59503;53.486;10.196;2022-09-27T15:56:49;2.58;;;1.40;;
71665;SDS011;59503;53.486;10.196;2022-09-27T15:59:25;5.10;;;1.42;;
71665;SDS011;59503;53.486;10.196;2022-09-27T16:01:56;2.10;;;0.97;;
71665;SDS011;59503;53.486;10.196;2022-09-27T16:04:24;5.28;;;1.20;;
71665;SDS011;59503;53.486;10.196;2022-09-27T16:06:51;2.75;;;0.85;;
71665;SDS011;59503;53.486;10.196;2022-09-27T16:09:19;2.70;;;0.77;;
71665;SDS011;59503;53.486;10.196;2022-09-27T16:11:49;5.20;;;1.35;;
71665;SDS011;59503;53.486;10.196;2022-09-27T16:14:15;1.70;;;0.80;;
71665;SDS011;59503;53.486;10.196;2022-09-27T16:16:45;2.72;;;0.90;;
71665;SDS011;59503;53.486;10.196;2022-09-27T16:19:14;4.40;;;1.27;;
71665;SDS011;59503;53.486;10.196;2022-09-27T16:21:39;4.23;;;1.47;;
71665;SDS011;59503;53.486;10.196;2022-09-27T16:24:07;2.90;;;0.93;;
71665;SDS011;59503;53.486;10.196;2022-09-27T16:26:34;3.15;;;1.02;;
71665;SDS011;59503;53.486;10.196;2022-09-27T16:28:59;3.43;;;1.10;;
71665;SDS011;59503;53.486;10.196;2022-09-27T16:31:25;1.37;;;0.80;;
71665;SDS011;59503;53.486;10.196;2022-09-27T16:33:50;4.90;;;0.85;;
71665;SDS011;59503;53.486;10.196;2022-09-27T16:36:16;3.07;;;0.80;;
71665;SDS011;59503;53.486;10.196;2022-09-27T16:38:47;5.63;;;0.77;;
71665;SDS011;59503;53.486;10.196;2022-09-27T16:41:16;3.72;;;0.88;;
71665;SDS011;59503;53.486;10.196;2022-09-27T16:43:42;5.83;;;1.03;;
71665;SDS011;59503;53.486;10.196;2022-09-27T16:46:11;3.17;;;0.70;;
71665;SDS011;59503;53.486;10.196;2022-09-27T16:48:39;4.22;;;0.93;;
71665;SDS011;59503;53.486;10.196;2022-09-27T16:51:12;2.22;;;0.77;;
71665;SDS011;59503;53.486;10.196;2022-09-27T16:53:59;2.72;;;1.00;;
71665;SDS011;59503;53.486;10.196;2022-09-27T16:56:25;2.60;;;0.70;;
71665;SDS011;59503;53.486;10.196;2022-09-27T16:58:52;1.80;;;0.82;;
71665;SDS011;59503;53.486;10.196;2022-09-27T17:01:17;4.05;;;0.40;;
71665;SDS011;59503;53.486;10.196;2022-09-27T17:03:47;2.57;;;1.00;;
71665;SDS011;59503;53.486;10.196;2022-09-27T17:06:14;2.17;;;0.60;;
71665;SDS011;59503;53.486;10.196;2022-09-27T17:08:40;2.20;;;0.50;;
71665;SDS011;59503;53.486;10.196;2022-09-27T17:11:05;2.23;;;0.50;;
71665;SDS011;59503;53.486;10.196;2022-09-27T17:13:31;1.83;;;0.60;;
71665;SDS011;59503;53.486;10.196;2022-09-27T17:15:57;3.60;;;0.70;;
71665;SDS011;59503;53.486;10.196;2022-09-27T17:18:22;1.50;;;0.60;;
71665;SDS011;59503;53.486;10.196;2022-09-27T17:20:48;3.73;;;0.63;;
71665;SDS011;59503;53.486;10.196;2022-09-27T17:23:14;1.27;;;0.70;;
71665;SDS011;59503;53.486;10.196;2022-09-27T17:25:40;1.20;;;0.60;;
71665;SDS011;59503;53.486;10.196;2022-09-27T17:28:05;2.28;;;0.77;;
71665;SDS011;59503;53.486;10.196;2022-09-27T17:30:31;5.70;;;1.00;;
71665;SDS011;59503;53.486;10.196;2022-09-27T17:32:58;2.15;;;0.68;;
71665;SDS011;59503;53.486;10.196;2022-09-27T17:35:24;2.03;;;0.80;;
71665;SDS011;59503;53.486;10.196;2022-09-27T17:37:49;2.60;;;1.02;;
71665;SDS011;59503;53.486;10.196;2022-09-27T17:40:15;2.03;;;0.87;;
71665;SDS011;59503;53.486;10.196;2022-09-27T17:42:41;2.28;;;1.10;;
71665;SDS011;59503;53.486;10.196;2022-09-27T17:45:07;3.43;;;1.20;;
71665;SDS011;59503;53.486;10.196;2022-09-27T17:47:33;3.90;;;1.08;;